Time;durP1;ratioP1;P1;durP2;ratioP2;P2;SDS_P1;SDS_P2;PMS_P1;PMS_P2;Temp;Humidity;BMP_temperature;BMP_pressure;BME280_temperature;BME280_humidity;BME280_pressure;Samples;Min_cycle;Max_cycle;Signal;HPM_P1;HPM_P2
2023/08/15 00:00:56;;;;;;;7.22;5.32;;;;;;;26.94;36.13;99441.25;5021521;28;20030;-76
2023/08/15 00:03:22;;;;;;;6.03;5.07;;;;;;;26.98;35.94;99447.69;5028101;28;20030;-76
2023/08/15 00:05:47;;;;;;;7.65;5.35;;;;;;;26.97;36.17;99451.00;5028366;28;20037;-76
2023/08/15 00:08:13;;;;;;;6.55;5.15;;;;;;;26.46;36.27;99440.72;5024203;28;20034;-76
2023/08/15 00:10:38;;;;;;;6.47;4.80;;;;;;;26.28;36.65;99444.00;5017127;28;20025;-76
2023/08/15 00:13:04;;;;;;;6.68;5.75;;;;;;;26.53;36.31;99439.75;5026308;28;20021;-76
2023/08/15 00:15:30;;;;;;;10.10;6.03;;;;;;;26.70;36.38;99443.44;5024422;28;20025;-76
2023/08/15 00:17:56;;;;;;;9.13;5.53;;;;;;;26.78;36.60;99450.63;5024344;28;20029;-76
2023/08/15 00:20:21;;;;;;;7.55;5.45;;;;;;;26.66;36.42;99434.91;5020666;28;20550;-76
2023/08/15 00:22:47;;;;;;;5.57;5.07;;;;;;;26.67;36.63;99445.16;5024262;28;20037;-76
2023/08/15 00:25:13;;;;;;;8.68;4.95;;;;;;;26.53;36.49;99442.59;5022855;28;20381;-76
2023/08/15 00:27:38;;;;;;;10.15;5.63;;;;;;;26.58;36.47;99445.75;5019774;28;20025;-76
2023/08/15 00:30:05;;;;;;;7.18;5.22;;;;;;;26.46;36.46;99446.44;5023071;28;20705;-76
2023/08/15 00:32:35;;;;;;;10.85;5.93;;;;;;;26.59;36.70;99443.72;5024305;28;20054;-76
2023/08/15 00:35:02;;;;;;;9.68;5.25;;;;;;;26.25;36.99;99437.13;5022956;28;20508;-76
2023/08/15 00:37:28;;;;;;;6.80;6.07;;;;;;;25.70;39.05;99433.75;5023643;28;20378;-76
2023/08/15 00:39:53;;;;;;;10.50;5.80;;;;;;;25.11;40.60;99438.94;5025195;28;20037;-76
2023/08/15 00:42:19;;;;;;;6.78;5.72;;;;;;;24.86;40.77;99435.25;5025432;28;20025;-76
2023/08/15 00:44:44;;;;;;;10.43;5.43;;;;;;;24.59;40.62;99435.25;5027369;28;20428;-76
2023/08/15 00:47:10;;;;;;;10.05;5.88;;;;;;;24.42;40.30;99437.97;5026685;28;20084;-75
2023/08/15 00:49:36;;;;;;;12.50;6.35;;;;;;;24.45;40.51;99437.09;5024490;28;20550;-76
2023/08/15 00:52:03;;;;;;;9.45;6.30;;;;;;;24.42;40.54;99426.53;5017336;28;20116;-76
2023/08/15 00:54:29;;;;;;;6.68;5.97;;;;;;;24.39;41.15;99435.97;5026891;28;20100;-76
2023/08/15 00:56:55;;;;;;;10.57;6.75;;;;;;;24.29;41.23;99434.09;5020616;28;21083;-76
2023/08/15 00:59:21;;;;;;;10.82;7.78;;;;;;;24.31;41.63;99437.31;5025225;28;20029;-76
2023/08/15 01:01:46;;;;;;;9.20;6.80;;;;;;;24.34;42.12;99436.44;5024025;28;20029;-76
2023/08/15 01:04:13;;;;;;;8.77;7.32;;;;;;;24.35;41.83;99432.34;5029549;28;20113;-76
2023/08/15 01:06:39;;;;;;;12.73;7.68;;;;;;;24.32;42.12;99439.75;5027292;28;20471;-76
2023/08/15 01:09:05;;;;;;;10.93;7.68;;;;;;;24.35;42.33;99433.19;5021409;28;20127;-76
2023/08/15 01:11:37;;;;;;;8.30;6.20;;;;;;;24.35;42.14;99433.19;5024746;28;20479;-76
2023/08/15 01:14:06;;;;;;;11.65;7.20;;;;;;;24.33;42.42;99429.13;5023735;28;20365;-75
2023/08/15 01:16:43;;;;;;;14.13;6.88;;;;;;;24.28;42.70;99426.75;5026116;28;20516;-76
2023/08/15 01:19:27;;;;;;;11.45;6.60;;;;;;;24.27;43.04;99425.16;5023143;28;20060;-76
2023/08/15 01:21:55;;;;;;;10.00;7.28;;;;;;;24.24;42.92;99426.81;5024839;28;20090;-76
2023/08/15 01:24:22;;;;;;;12.07;6.68;;;;;;;24.26;42.68;99430.03;5021747;28;20033;-76
2023/08/15 01:26:47;;;;;;;15.18;6.45;;;;;;;24.23;42.72;99420.25;5021181;28;20033;-76
2023/08/15 01:29:13;;;;;;;9.82;6.10;;;;;;;24.22;43.00;99412.16;5024852;28;20060;-75
2023/08/15 01:31:46;;;;;;;11.13;7.35;;;;;;;24.25;43.04;99422.69;5023959;28;20112;-75
2023/08/15 01:34:25;;;;;;;9.18;6.07;;;;;;;24.18;42.97;99406.47;5025696;28;20032;-75
2023/08/15 01:36:56;;;;;;;10.68;7.15;;;;;;;24.21;43.29;99411.31;5027218;28;20091;-76
2023/08/15 01:39:29;;;;;;;10.55;6.85;;;;;;;24.17;43.16;99404.84;5022519;28;20373;-76
2023/08/15 01:41:57;;;;;;;8.85;6.70;;;;;;;24.08;43.74;99391.13;5023434;28;20033;-76
2023/08/15 01:44:24;;;;;;;10.75;6.28;;;;;;;24.14;43.80;99404.91;5019125;28;20065;-76
2023/08/15 01:46:50;;;;;;;8.52;6.45;;;;;;;24.07;43.69;99398.06;5027760;28;20041;-75
2023/08/15 01:49:16;;;;;;;9.00;6.55;;;;;;;24.07;43.75;99394.41;5026517;28;20091;-76
2023/08/15 01:51:42;;;;;;;13.07;7.30;;;;;;;24.16;44.29;99399.56;5028593;28;20120;-76
2023/08/15 01:54:07;;;;;;;7.00;5.90;;;;;;;24.28;43.83;99396.13;5026016;28;20515;-76
2023/08/15 01:56:33;;;;;;;10.80;6.25;;;;;;;24.50;43.68;99398.66;5021313;28;20029;-76
2023/08/15 01:58:58;;;;;;;10.32;6.25;;;;;;;24.83;43.07;99395.28;5023947;28;20030;-76
2023/08/15 02:01:24;;;;;;;6.68;5.80;;;;;;;25.05;42.42;99395.72;5020649;28;20109;-76
2023/08/15 02:03:49;;;;;;;9.13;6.22;;;;;;;25.16;41.81;99393.47;5023233;28;20064;-76
2023/08/15 02:06:15;;;;;;;9.63;6.47;;;;;;;25.31;41.89;99388.25;5023874;28;21226;-76
2023/08/15 02:08:40;;;;;;;9.32;5.80;;;;;;;25.40;41.42;99387.69;5026544;28;20029;-76
2023/08/15 02:11:05;;;;;;;8.90;6.38;;;;;;;25.49;40.83;99381.41;5020192;28;20040;-76
2023/08/15 02:13:33;;;;;;;6.97;6.03;;;;;;;25.60;40.71;99381.19;5022987;28;20025;-76
2023/08/15 02:15:59;;;;;;;11.82;6.00;;;;;;;25.68;40.20;99385.50;5027997;28;20060;-76
2023/08/15 02:18:27;;;;;;;11.43;5.97;;;;;;;25.82;40.03;99395.06;5024169;28;20080;-76
2023/08/15 02:20:52;;;;;;;7.22;5.85;;;;;;;25.80;40.32;99395.47;5028578;28;20068;-76
2023/08/15 02:23:18;;;;;;;8.13;6.00;;;;;;;25.88;40.22;99394.09;5028920;28;20033;-76
2023/08/15 02:25:43;;;;;;;11.98;6.35;;;;;;;25.93;39.70;99396.41;5026470;28;20033;-76
2023/08/15 02:28:09;;;;;;;10.48;6.78;;;;;;;25.96;39.88;99391.06;5025464;28;20026;-76
2023/08/15 02:30:37;;;;;;;10.52;6.22;;;;;;;26.03;39.29;99394.59;5028381;28;20461;-76
2023/08/15 02:33:04;;;;;;;7.75;6.35;;;;;;;26.00;39.75;99394.66;5026424;28;20044;-76
2023/08/15 02:35:29;;;;;;;12.18;6.55;;;;;;;25.77;39.91;99390.66;5027507;28;20029;-76
2023/08/15 02:37:55;;;;;;;7.40;5.70;;;;;;;25.82;39.88;99395.84;5028635;28;20131;-76
2023/08/15 02:40:20;;;;;;;10.38;6.50;;;;;;;25.67;40.02;99395.38;5025660;28;20090;-76
2023/08/15 02:42:46;;;;;;;12.43;6.28;;;;;;;25.74;39.76;99397.25;5023286;28;20033;-76
2023/08/15 02:45:11;;;;;;;10.07;5.30;;;;;;;25.77;39.83;99390.66;5024889;28;20098;-76
2023/08/15 02:47:37;;;;;;;14.73;5.80;;;;;;;25.31;40.22;99385.41;5023424;28;20050;-76
2023/08/15 02:50:02;;;;;;;9.25;6.15;;;;;;;25.30;40.69;99395.22;5028841;28;20124;-76
2023/08/15 02:52:28;;;;;;;10.52;5.93;;;;;;;25.45;40.36;99394.94;5029047;28;20496;-76
2023/08/15 02:54:53;;;;;;;14.48;6.95;;;;;;;25.69;40.63;99395.72;5024006;28;20029;-76
2023/08/15 02:57:19;;;;;;;12.52;6.80;;;;;;;25.36;41.12;99402.06;5027848;28;20091;-76
2023/08/15 02:59:44;;;;;;;11.70;6.93;;;;;;;24.87;41.92;99393.19;5024932;28;20030;-76
2023/08/15 03:02:10;;;;;;;16.60;6.65;;;;;;;24.50;42.48;99399.47;5024585;28;20033;-76
2023/08/15 03:04:35;;;;;;;46.85;10.32;;;;;;;24.34;43.95;99400.13;5025455;28;20500;-76
2023/08/15 03:07:01;;;;;;;46.15;14.10;;;;;;;24.17;44.77;99384.88;5025218;28;20495;-76
2023/08/15 03:09:26;;;;;;;15.15;9.48;;;;;;;23.90;46.33;99379.91;5023962;28;20029;-76
2023/08/15 03:11:52;;;;;;;10.25;7.90;;;;;;;23.76;46.99;99374.38;5024485;28;20036;-76
2023/08/15 03:14:17;;;;;;;13.80;6.53;;;;;;;23.65;48.07;99397.38;5031176;28;20021;-76
2023/08/15 03:16:42;;;;;;;10.32;7.25;;;;;;;23.49;48.61;99397.97;5015217;28;20032;-76
2023/08/15 03:19:08;;;;;;;8.05;6.43;;;;;;;23.51;49.04;99386.91;5021631;28;20026;-76
2023/08/15 03:21:33;;;;;;;8.40;6.47;;;;;;;23.43;49.28;99391.91;5024732;28;20021;-76
2023/08/15 03:23:59;;;;;;;9.80;6.38;;;;;;;23.42;49.39;99399.69;5031190;28;20057;-76
2023/08/15 03:26:25;;;;;;;13.52;7.32;;;;;;;23.48;49.31;99394.31;5032636;28;20022;-76
2023/08/15 03:28:52;;;;;;;10.70;6.30;;;;;;;23.44;49.59;99399.22;5032219;28;20119;-76
2023/08/15 03:31:17;;;;;;;11.30;6.82;;;;;;;23.45;49.22;99402.91;5032142;28;20039;-76
2023/08/15 03:33:43;;;;;;;12.48;7.28;;;;;;;23.47;49.06;99397.56;5024765;28;20025;-76
2023/08/15 03:36:08;;;;;;;15.20;6.97;;;;;;;23.56;48.74;99400.75;5028514;28;20029;-75
2023/08/15 03:38:34;;;;;;;9.30;6.63;;;;;;;23.51;49.18;99407.72;5030216;28;20025;-76
2023/08/15 03:41:04;;;;;;;13.07;7.35;;;;;;;23.41;49.68;99400.91;5021428;28;20592;-76
2023/08/15 03:43:30;;;;;;;;;;;;;;;23.48;49.45;99400.03;5016411;28;20112;-76
2023/08/15 03:45:55;;;;;;;22.45;8.55;;;;;;;23.55;49.36;99399.13;5023430;28;19921;-75
2023/08/15 03:48:21;;;;;;;76.55;10.57;;;;;;;23.51;49.78;99393.44;5020378;28;20033;-76
2023/08/15 03:50:46;;;;;;;15.27;7.72;;;;;;;23.36;50.14;99398.50;5025976;28;20029;-76
2023/08/15 03:53:12;;;;;;;10.10;7.57;;;;;;;23.40;50.08;99399.25;5020050;28;20029;-76
2023/08/15 03:55:37;;;;;;;14.88;6.88;;;;;;;23.45;49.97;99408.63;5031292;28;20492;-75
2023/08/15 03:58:03;;;;;;;13.07;6.75;;;;;;;23.32;50.82;99402.63;5028068;28;20018;-76
2023/08/15 04:00:28;;;;;;;12.05;6.65;;;;;;;23.45;50.68;99400.84;5032570;28;20025;-75
2023/08/15 04:02:54;;;;;;;10.35;6.65;;;;;;;23.35;50.60;99396.06;5031880;28;20026;-75
2023/08/15 04:05:19;;;;;;;14.60;8.23;;;;;;;23.45;50.14;99397.19;5031978;28;20025;-75
2023/08/15 04:07:45;;;;;;;16.02;7.22;;;;;;;23.54;50.02;99404.00;5026427;28;20037;-75
2023/08/15 04:10:14;;;;;;;27.50;7.97;;;;;;;23.47;50.67;99403.28;5030664;28;20018;-76
2023/08/15 04:12:40;;;;;;;38.90;8.35;;;;;;;23.51;50.32;99407.72;5020786;28;20408;-75
2023/08/15 04:15:06;;;;;;;27.25;7.90;;;;;;;23.87;49.48;99408.50;5014041;28;20022;-75
2023/08/15 04:17:32;;;;;;;21.52;6.95;;;;;;;24.15;48.97;99413.06;5014646;28;20378;-75
2023/08/15 04:19:57;;;;;;;19.85;7.65;;;;;;;24.37;48.31;99415.56;5011966;28;20026;-74
2023/08/15 04:22:22;;;;;;;12.40;7.38;;;;;;;24.47;48.35;99422.38;5011872;28;20037;-75
2023/08/15 04:24:48;;;;;;;13.65;8.32;;;;;;;24.23;49.15;99428.03;5024513;28;20029;-74
2023/08/15 04:27:13;;;;;;;15.15;7.78;;;;;;;23.92;48.69;99423.13;5028547;28;20036;-74
2023/08/15 04:29:39;;;;;;;13.32;7.80;;;;;;;23.96;48.53;99428.81;5030325;28;20025;-75
2023/08/15 04:32:04;;;;;;;29.23;9.07;;;;;;;24.04;48.60;99432.41;5030407;28;20079;-74
2023/08/15 04:34:30;;;;;;;11.85;7.65;;;;;;;24.17;48.16;99433.44;5029719;28;20029;-74
2023/08/15 04:36:55;;;;;;;14.05;6.88;;;;;;;24.52;47.77;99437.00;5030776;28;20032;-75
2023/08/15 04:39:21;;;;;;;10.82;6.20;;;;;;;24.65;48.56;99439.25;5028780;28;21659;-76
2023/08/15 04:41:47;;;;;;;16.00;7.40;;;;;;;24.74;49.12;99445.25;5019101;28;20037;-74
2023/08/15 04:44:14;;;;;;;12.73;7.13;;;;;;;24.73;49.58;99443.59;5022213;28;20578;-78
2023/08/15 04:46:39;;;;;;;10.88;6.70;;;;;;;24.83;49.46;99446.75;5011384;28;20528;-76
2023/08/15 04:49:05;;;;;;;10.82;6.28;;;;;;;24.80;48.75;99452.09;5020227;28;20030;-75
2023/08/15 04:51:31;;;;;;;9.07;6.88;;;;;;;24.51;49.14;99451.72;5019058;28;20399;-76
2023/08/15 04:53:56;;;;;;;13.48;6.88;;;;;;;24.05;49.59;99454.78;5029077;28;20029;-75
2023/08/15 04:56:22;;;;;;;18.05;7.53;;;;;;;23.69;50.17;99450.31;5020439;28;20516;-75
2023/08/15 04:58:48;;;;;;;24.40;8.80;;;;;;;23.82;50.04;99458.34;5017311;28;20048;-76
2023/08/15 05:01:13;;;;;;;15.40;7.35;;;;;;;23.81;49.68;99451.81;5020903;28;20152;-74
2023/08/15 05:03:40;;;;;;;15.68;7.68;;;;;;;24.07;48.53;99463.78;5028888;28;20025;-73
2023/08/15 05:06:05;;;;;;;22.85;7.68;;;;;;;24.10;47.86;99462.09;5023554;28;20029;-74
2023/08/15 05:08:31;;;;;;;14.00;7.53;;;;;;;24.38;47.35;99460.09;5016843;28;20021;-74
2023/08/15 05:10:56;;;;;;;15.65;7.25;;;;;;;24.61;46.46;99461.34;5021662;28;20056;-74
2023/08/15 05:13:22;;;;;;;14.25;7.57;;;;;;;24.73;46.23;99469.34;5027430;28;20397;-75
2023/08/15 05:15:47;;;;;;;14.93;6.60;;;;;;;24.66;46.04;99463.75;5023378;28;20168;-74
2023/08/15 05:18:17;;;;;;;22.70;7.20;;;;;;;24.70;45.79;99470.22;5011243;28;20018;-73
2023/08/15 05:20:45;;;;;;;18.30;7.47;;;;;;;24.74;45.92;99468.13;5013714;28;20790;-74
2023/08/15 05:23:10;;;;;;;7.95;6.20;;;;;;;24.68;46.50;99466.97;5012296;28;20436;-74
2023/08/15 05:25:36;;;;;;;22.23;7.55;;;;;;;24.35;47.37;99461.75;5022514;28;20017;-75
2023/08/15 05:28:05;;;;;;;19.17;7.50;;;;;;;23.86;47.71;99459.09;5024167;28;20034;-75
2023/08/15 05:30:34;;;;;;;16.63;6.32;;;;;;;23.91;47.47;99450.06;5016466;28;20480;-74
2023/08/15 05:33:00;;;;;;;13.45;7.55;;;;;;;24.06;47.35;99462.13;5017535;28;20056;-75
2023/08/15 05:35:26;;;;;;;15.23;6.78;;;;;;;24.13;47.17;99469.78;5018870;28;20017;-72
2023/08/15 05:37:53;;;;;;;18.05;6.75;;;;;;;24.14;46.97;99468.56;5016657;28;20018;-72
2023/08/15 05:40:18;;;;;;;11.02;6.85;;;;;;;24.45;46.76;99465.69;5032368;28;20024;-72
2023/08/15 05:42:44;;;;;;;11.55;6.10;;;;;;;24.25;47.12;99454.97;5020705;28;20432;-72
2023/08/15 05:45:10;;;;;;;22.17;7.55;;;;;;;24.10;47.55;99451.47;5014240;28;20091;-72
2023/08/15 05:47:35;;;;;;;17.75;6.70;;;;;;;24.03;47.62;99457.28;5023400;28;20048;-72
2023/08/15 05:50:02;;;;;;;24.20;7.20;;;;;;;24.05;47.72;99454.00;5023865;28;20025;-72
2023/08/15 05:52:27;;;;;;;13.38;6.63;;;;;;;24.29;46.63;99456.94;5023759;28;20029;-72
2023/08/15 05:54:54;;;;;;;40.20;7.93;;;;;;;23.98;47.13;99454.88;5019817;28;20091;-74
2023/08/15 05:57:20;;;;;;;22.85;7.88;;;;;;;24.22;46.75;99458.66;5027342;28;20045;-74
2023/08/15 05:59:45;;;;;;;19.35;8.00;;;;;;;24.35;46.79;99466.66;5026030;28;20025;-77
2023/08/15 06:02:11;;;;;;;23.38;10.02;;;;;;;24.50;46.51;99468.06;5020727;28;20049;-75
2023/08/15 06:04:37;;;;;;;22.67;8.95;;;;;;;24.40;46.02;99461.25;5022117;28;20037;-74
2023/08/15 06:07:03;;;;;;;13.40;7.03;;;;;;;24.25;46.71;99459.84;5020891;28;20120;-76
2023/08/15 06:09:28;;;;;;;18.30;7.10;;;;;;;24.26;46.79;99458.59;5022242;28;20142;-73
2023/08/15 06:11:54;;;;;;;15.13;6.50;;;;;;;24.07;47.00;99462.94;5022394;28;20121;-72
2023/08/15 06:14:20;;;;;;;23.75;7.50;;;;;;;23.97;47.32;99459.75;5014229;28;20049;-73
2023/08/15 06:16:46;;;;;;;17.98;6.70;;;;;;;24.05;47.19;99460.50;5030657;28;20385;-73
2023/08/15 06:19:12;;;;;;;26.23;8.20;;;;;;;24.18;47.09;99457.09;5015672;28;20515;-73
2023/08/15 06:21:37;;;;;;;14.77;6.70;;;;;;;24.40;46.91;99454.75;5012495;28;20109;-73
2023/08/15 06:24:03;;;;;;;21.10;7.18;;;;;;;24.42;47.51;99454.28;5025896;28;20063;-72
2023/08/15 06:26:28;;;;;;;12.98;7.20;;;;;;;24.26;47.62;99467.19;5028266;28;20060;-71
2023/08/15 06:28:54;;;;;;;16.55;7.50;;;;;;;24.36;47.30;99451.09;5030817;28;20087;-72
2023/08/15 06:31:19;;;;;;;17.65;6.57;;;;;;;24.23;48.12;99453.75;5023822;28;20041;-71
2023/08/15 06:33:45;;;;;;;15.05;7.25;;;;;;;24.38;47.99;99457.22;5016734;28;20131;-69
2023/08/15 06:36:10;;;;;;;26.60;8.13;;;;;;;24.44;47.61;99444.06;5019737;28;20029;-69
2023/08/15 06:38:36;;;;;;;17.20;6.53;;;;;;;24.55;47.93;99449.59;5012492;28;20025;-71
2023/08/15 06:41:02;;;;;;;24.08;6.35;;;;;;;24.75;47.29;99449.72;5011218;28;20092;-71
2023/08/15 06:43:28;;;;;;;16.45;7.30;;;;;;;24.68;47.73;99453.50;5019250;28;20190;-70
2023/08/15 06:45:54;;;;;;;16.58;6.95;;;;;;;24.75;47.48;99455.44;5024846;28;20575;-71
2023/08/15 06:48:20;;;;;;;22.13;6.43;;;;;;;24.69;47.35;99451.44;5029834;28;20025;-73
2023/08/15 06:50:45;;;;;;;13.00;5.55;;;;;;;24.53;47.57;99447.19;5028645;28;20403;-71
2023/08/15 06:53:11;;;;;;;29.83;6.95;;;;;;;24.48;48.26;99441.16;5028184;28;20036;-72
2023/08/15 06:55:36;;;;;;;15.57;6.20;;;;;;;24.43;48.19;99445.31;5018953;28;20446;-72
2023/08/15 06:58:02;;;;;;;8.25;6.90;;;;;;;24.30;48.27;99436.50;5028649;28;20452;-72
2023/08/15 07:00:28;;;;;;;13.80;6.82;;;;;;;24.51;48.00;99454.56;5028302;28;20512;-72
2023/08/15 07:02:56;;;;;;;19.33;6.68;;;;;;;24.24;49.37;99433.31;5017741;28;20056;-72
2023/08/15 07:05:21;;;;;;;17.77;6.25;;;;;;;24.06;49.46;99438.47;5013661;28;20457;-72
2023/08/15 07:07:47;;;;;;;15.60;7.00;;;;;;;24.31;48.82;99445.91;5024551;28;20500;-72
2023/08/15 07:10:12;;;;;;;15.77;6.85;;;;;;;24.65;48.19;99451.50;5012263;28;20040;-72
2023/08/15 07:12:38;;;;;;;24.05;6.88;;;;;;;24.77;47.83;99452.97;5012320;28;20106;-72
2023/08/15 07:15:04;;;;;;;17.98;6.50;;;;;;;24.75;47.90;99449.72;5015492;28;20113;-72
2023/08/15 07:17:29;;;;;;;22.90;7.32;;;;;;;24.49;48.20;99440.69;5016974;28;20030;-72
2023/08/15 07:19:55;;;;;;;26.02;6.88;;;;;;;24.61;48.21;99445.03;5029350;28;20078;-72
2023/08/15 07:22:21;;;;;;;16.95;7.55;;;;;;;24.54;48.56;99436.56;5018531;28;20045;-72
2023/08/15 07:24:46;;;;;;;17.90;6.38;;;;;;;24.58;48.67;99443.03;5019503;28;20029;-72
2023/08/15 07:27:12;;;;;;;11.68;6.72;;;;;;;24.39;49.53;99433.91;5020728;28;20077;-72
2023/08/15 07:29:37;;;;;;;10.00;6.50;;;;;;;24.48;48.49;99441.94;5016080;28;20021;-72
2023/08/15 07:32:06;;;;;;;14.70;6.95;;;;;;;24.50;49.05;99445.22;5017325;28;20025;-72
2023/08/15 07:34:31;;;;;;;16.70;6.32;;;;;;;24.34;48.73;99436.44;5018315;28;20137;-72
2023/08/15 07:36:56;;;;;;;13.13;6.93;;;;;;;24.15;48.61;99427.34;5012276;28;20489;-72
2023/08/15 07:39:22;;;;;;;20.88;6.53;;;;;;;24.28;48.68;99443.91;5014205;28;20427;-72
2023/08/15 07:41:47;;;;;;;17.05;6.43;;;;;;;24.38;48.28;99442.94;5020333;28;20405;-72
2023/08/15 07:44:13;;;;;;;13.88;6.40;;;;;;;24.37;48.36;99439.25;5011824;28;20439;-72
2023/08/15 07:46:38;;;;;;;12.30;6.43;;;;;;;24.32;47.71;99439.75;5013531;28;20488;-71
2023/08/15 07:49:05;;;;;;;15.80;7.63;;;;;;;24.27;47.34;99443.06;5013000;28;20397;-72
2023/08/15 07:51:31;;;;;;;15.57;8.32;;;;;;;24.41;47.39;99442.06;5024328;28;20029;-73
2023/08/15 07:53:57;;;;;;;16.40;8.13;;;;;;;24.52;46.76;99445.56;5018343;28;20038;-73
2023/08/15 07:56:22;;;;;;;9.60;6.53;;;;;;;24.47;47.12;99430.97;5015467;28;20428;-74
2023/08/15 07:58:48;;;;;;;13.02;6.60;;;;;;;24.34;47.12;99431.56;5015415;28;20103;-72
2023/08/15 08:01:13;;;;;;;11.70;6.93;;;;;;;24.40;47.40;99440.44;5015004;28;20036;-72
2023/08/15 08:03:42;;;;;;;13.98;6.88;;;;;;;24.37;47.75;99429.88;5010826;28;20416;-73
2023/08/15 08:06:08;;;;;;;17.58;6.68;;;;;;;24.27;47.83;99422.28;5021418;28;20033;-73
2023/08/15 08:08:33;;;;;;;17.25;6.38;;;;;;;24.31;47.81;99423.81;5019719;28;20064;-72
2023/08/15 08:10:59;;;;;;;12.30;6.90;;;;;;;24.30;47.97;99430.78;5015518;28;20034;-73
2023/08/15 08:13:24;;;;;;;14.15;8.05;;;;;;;24.33;48.28;99421.38;5009862;28;20064;-73
2023/08/15 08:15:50;;;;;;;14.40;7.00;;;;;;;24.37;48.62;99427.81;5014061;28;20026;-72
2023/08/15 08:18:15;;;;;;;14.07;8.43;;;;;;;24.35;49.07;99426.63;5013203;28;20121;-73
2023/08/15 08:20:41;;;;;;;11.98;8.07;;;;;;;24.58;48.56;99430.78;5012435;28;20144;-73
2023/08/15 08:23:06;;;;;;;26.85;8.15;;;;;;;24.48;49.31;99432.56;5016963;28;20108;-73
2023/08/15 08:25:32;;;;;;;20.60;7.40;;;;;;;24.47;49.48;99423.19;5022592;28;20507;-72
2023/08/15 08:27:57;;;;;;;15.80;7.68;;;;;;;24.51;49.78;99426.81;5014403;28;20041;-72
2023/08/15 08:30:23;;;;;;;10.20;7.15;;;;;;;24.53;50.01;99432.06;5017896;28;20032;-73
2023/08/15 08:32:50;;;;;;;11.10;6.78;;;;;;;24.49;50.73;99426.41;5020614;28;20080;-73
2023/08/15 08:35:16;;;;;;;16.67;7.40;;;;;;;24.48;50.74;99426.84;5019386;28;20112;-73
2023/08/15 08:37:49;;;;;;;19.75;7.03;;;;;;;24.67;50.80;99433.91;5027273;28;20097;-73
2023/08/15 08:40:17;;;;;;;15.75;6.38;;;;;;;24.66;51.27;99424.50;5015416;28;20037;-73
2023/08/15 08:42:43;;;;;;;9.82;6.47;;;;;;;24.80;50.55;99425.56;5020156;28;20030;-73
2023/08/15 08:45:12;;;;;;;13.52;6.20;;;;;;;24.79;50.28;99421.06;5014616;28;20037;-73
2023/08/15 08:47:39;;;;;;;16.58;6.32;;;;;;;24.87;50.69;99425.44;5011737;28;20041;-73
2023/08/15 08:50:11;;;;;;;15.52;7.65;;;;;;;24.97;50.89;99425.69;5015366;28;20475;-73
2023/08/15 08:52:41;;;;;;;15.55;6.55;;;;;;;24.96;50.64;99422.00;5013640;28;20029;-74
2023/08/15 08:55:08;;;;;;;12.80;5.90;;;;;;;24.85;50.27;99422.19;5015649;28;20060;-74
2023/08/15 08:57:35;;;;;;;9.48;6.40;;;;;;;24.71;51.35;99420.34;5021577;28;20031;-74
2023/08/15 09:00:07;;;;;;;8.88;5.80;;;;;;;24.67;51.05;99416.75;5023265;28;20092;-74
2023/08/15 09:02:33;;;;;;;13.52;7.05;;;;;;;24.72;51.21;99421.19;5020321;28;20504;-74
2023/08/15 09:04:59;;;;;;;16.38;7.07;;;;;;;24.67;50.70;99423.25;5020028;28;20072;-74
2023/08/15 09:07:24;;;;;;;8.70;5.30;;;;;;;24.54;50.28;99422.25;5025092;28;20033;-74
2023/08/15 09:09:49;;;;;;;11.65;5.97;;;;;;;24.53;49.83;99417.78;5012626;28;20116;-72
2023/08/15 09:12:37;;;;;;;17.73;6.75;;;;;;;24.59;49.84;99424.66;5016137;28;20034;-74
2023/08/15 09:15:10;;;;;;;13.50;6.30;;;;;;;24.67;49.44;99425.34;5012012;28;20438;-74
2023/08/15 09:17:40;;;;;;;9.35;6.03;;;;;;;24.76;49.54;99439.06;5024526;28;20029;-75
2023/08/15 09:20:12;;;;;;;37.83;7.40;;;;;;;24.93;49.25;99431.47;5024345;28;20059;-74
2023/08/15 09:22:44;;;;;;;12.43;6.88;;;;;;;25.02;48.78;99440.31;5013766;28;20121;-74
2023/08/15 09:25:11;;;;;;;10.80;6.82;;;;;;;25.11;47.63;99430.34;5024896;28;20029;-74
2023/08/15 09:27:38;;;;;;;11.90;6.40;;;;;;;25.04;46.46;99429.22;5019311;28;20120;-74
2023/08/15 09:30:08;;;;;;;13.45;6.63;;;;;;;25.22;46.45;99426.03;5013654;28;20037;-74
2023/08/15 09:32:33;;;;;;;;;;;;;;;25.35;46.61;99437.66;5014966;28;20131;-74
2023/08/15 09:34:59;;;;;;;13.90;6.20;;;;;;;25.53;46.70;99433.66;5022228;28;19956;-74
2023/08/15 09:37:24;;;;;;;15.80;5.97;;;;;;;25.49;46.21;99435.81;5011673;28;20560;-74
2023/08/15 09:39:51;;;;;;;10.20;6.10;;;;;;;25.59;45.62;99426.19;5011000;28;20481;-74
2023/08/15 09:42:20;;;;;;;11.00;6.10;;;;;;;25.74;44.64;99425.91;5016643;28;20045;-75
2023/08/15 09:44:46;;;;;;;13.70;6.20;;;;;;;25.84;45.52;99427.75;5026096;28;20040;-74
2023/08/15 09:47:13;;;;;;;7.70;5.53;;;;;;;25.86;45.33;99430.97;5016992;28;20045;-75
2023/08/15 09:49:39;;;;;;;13.25;5.75;;;;;;;25.63;46.56;99432.66;5022522;28;20091;-76
2023/08/15 09:52:06;;;;;;;13.27;6.53;;;;;;;25.55;47.37;99431.16;5022423;28;20029;-73
2023/08/15 09:54:34;;;;;;;16.10;7.10;;;;;;;25.64;47.29;99424.84;5015115;28;20041;-76
2023/08/15 09:56:59;;;;;;;11.50;6.47;;;;;;;25.90;46.51;99423.09;5032575;28;20113;-75
2023/08/15 09:59:24;;;;;;;17.02;6.78;;;;;;;25.85;46.84;99426.47;5020849;28;20033;-74
2023/08/15 10:01:53;;;;;;;16.80;7.30;;;;;;;26.13;46.71;99429.97;5018269;28;20037;-74
2023/08/15 10:04:22;;;;;;;20.17;6.97;;;;;;;26.32;46.60;99431.22;5021140;28;20118;-74
2023/08/15 10:06:51;;;;;;;13.23;6.20;;;;;;;26.30;47.60;99427.16;5018702;28;20025;-75
2023/08/15 10:09:17;;;;;;;10.57;6.33;;;;;;;26.03;48.73;99426.09;5016806;28;20033;-75
2023/08/15 10:11:45;;;;;;;12.23;6.80;;;;;;;26.08;48.86;99428.44;5018165;28;20116;-74
2023/08/15 10:14:17;;;;;;;13.93;6.40;;;;;;;25.99;49.04;99428.22;5039975;28;20412;-74
2023/08/15 10:16:43;;;;;;;13.70;6.68;;;;;;;25.82;49.95;99432.28;5026270;28;20138;-72
2023/08/15 10:19:13;;;;;;;16.25;6.72;;;;;;;25.90;49.91;99434.53;5037845;28;20501;-73
2023/08/15 10:21:52;;;;;;;21.70;7.18;;;;;;;26.08;50.19;99430.50;5040602;28;20075;-73
2023/08/15 10:24:18;;;;;;;15.38;7.60;;;;;;;25.86;50.57;99433.81;5033540;28;20029;-73
2023/08/15 10:26:44;;;;;;;12.20;7.10;;;;;;;25.89;50.75;99427.22;5032607;28;20112;-75
2023/08/15 10:29:10;;;;;;;9.23;6.85;;;;;;;25.97;50.74;99439.31;5028003;28;20546;-73
2023/08/15 10:31:37;;;;;;;15.57;7.57;;;;;;;26.16;50.58;99434.81;5032052;28;20043;-72
2023/08/15 10:34:10;;;;;;;9.77;6.25;;;;;;;26.25;50.60;99440.00;5018933;28;20514;-75
2023/08/15 10:36:39;;;;;;;11.25;6.60;;;;;;;26.31;50.24;99440.28;5017283;28;20427;-74
2023/08/15 10:39:07;;;;;;;12.70;7.30;;;;;;;26.32;50.08;99442.66;5017926;28;20087;-75
2023/08/15 10:41:35;;;;;;;14.40;7.15;;;;;;;26.29;50.26;99434.97;5030839;28;20029;-81
2023/08/15 10:44:05;;;;;;;8.15;7.07;;;;;;;26.06;51.41;99441.56;5032188;28;20033;-78
2023/08/15 10:46:32;;;;;;;8.23;6.63;;;;;;;26.05;51.15;99437.09;5039232;28;20721;-78
2023/08/15 10:49:10;;;;;;;15.93;7.50;;;;;;;26.02;51.72;99435.13;5028250;28;20044;-79
2023/08/15 10:51:38;;;;;;;10.35;6.80;;;;;;;26.20;51.21;99435.59;5043555;28;20121;-76
2023/08/15 10:54:05;;;;;;;7.25;6.38;;;;;;;26.31;50.98;99434.53;5024447;28;20030;-78
2023/08/15 10:56:37;;;;;;;8.73;7.05;;;;;;;26.14;51.58;99445.13;5025026;28;20644;-76
2023/08/15 10:59:11;;;;;;;10.80;7.53;;;;;;;26.10;51.76;99439.47;5041893;28;20021;-76
2023/08/15 11:01:39;;;;;;;10.18;7.05;;;;;;;25.95;52.90;99438.97;5028163;28;20631;-76
2023/08/15 11:04:08;;;;;;;10.18;6.47;;;;;;;25.99;52.52;99444.63;5034131;28;20025;-76
2023/08/15 11:06:54;;;;;;;12.52;6.68;;;;;;;26.04;52.48;99442.03;5029064;28;20431;-75
2023/08/15 11:09:27;;;;;;;12.45;7.03;;;;;;;25.91;51.88;99436.16;5047071;28;20025;-76
2023/08/15 11:11:53;;;;;;;9.25;6.80;;;;;;;25.86;52.05;99448.16;5021333;28;20025;-76
2023/08/15 11:14:19;;;;;;;21.33;7.30;;;;;;;25.97;52.52;99449.97;5021558;28;20021;-76
2023/08/15 11:16:46;;;;;;;11.95;6.53;;;;;;;25.86;53.73;99451.00;5018468;28;20064;-76
2023/08/15 11:19:17;;;;;;;9.88;6.82;;;;;;;25.96;53.53;99442.66;5024378;28;20128;-76
2023/08/15 11:21:43;;;;;;;15.52;7.05;;;;;;;25.76;53.35;99444.28;5024597;28;20468;-76
2023/08/15 11:24:10;;;;;;;8.45;7.10;;;;;;;25.70;53.96;99436.59;5019800;28;20050;-75